Simi, Greece
Current Conditions -  °F | °C
As of 1:20 AM on Friday 19 Dec 2014 (Local Time) from LGRP Reporting Station
Broken Clouds Broken Clouds  
Wind Chill: 55°   Ceiling: 2500
Heat Index: 55°   Visibility: 6mi
Dew Point: 54°   Wind: 0mph
Humidity: 94%   Direction: NA
Pressure: 30.06"   Gusts: NA
Location:  36.61°N, 27.84°E
Report Text: LGRP 182320Z 00000KT 9999 FEW016TCU BKN025 13/12 Q1018 NOSIG
Loading
Personal Weather Stations






























Interactive Weather Map New forecast layout! Learn more

10-Day Weather Forecast

Advertisements
Track Severe Weather on mobile